Ovid, Idaho
Current Conditions -  °F | °C
As of 9:55 AM on Monday 22 Dec 2014 (Local Time) from KAFO Reporting Station
Overcast Overcast  
Wind Chill: -7°   Ceiling: 2600
Heat Index: -1°   Visibility: 10mi
Dew Point: -4°   Wind: 16mph
Humidity: 80%   Direction: 330°NNW
Pressure: 29.9"   Gusts: NA
Location:  42.3329°N, 111.271°W
Report Text: KAFO 221655Z AUTO 33014KT 10SM OVC026 M01/M04 A2990 RMK AO2
Loading
Personal Weather Stations






























Interactive Weather Map New forecast layout! Learn more

10-Day Weather Forecast

Advertisements
Track Severe Weather on mobile